createdAt,value
2023-06-26T00:00:11.747Z,28.18
2023-06-26T00:01:11.690Z,28.17
2023-06-26T00:02:11.743Z,28.20
2023-06-26T00:03:11.793Z,28.14
2023-06-26T00:04:11.712Z,28.18
2023-06-26T00:05:11.731Z,28.17
2023-06-26T00:06:11.742Z,28.18
2023-06-26T00:07:11.906Z,28.20
2023-06-26T00:08:11.910Z,28.15
2023-06-26T00:09:12.003Z,28.17
2023-06-26T00:10:12.035Z,28.17
2023-06-26T00:11:12.080Z,28.15
2023-06-26T00:12:12.033Z,28.17
2023-06-26T00:13:12.051Z,28.17
2023-06-26T00:14:12.061Z,28.18
2023-06-26T00:15:12.114Z,28.17
2023-06-26T00:16:12.127Z,28.17
2023-06-26T00:17:12.162Z,28.17
2023-06-26T00:18:12.134Z,28.18
2023-06-26T00:19:12.158Z,28.15
2023-06-26T00:20:12.160Z,28.15
2023-06-26T00:21:12.250Z,28.18
2023-06-26T00:22:12.365Z,28.18
2023-06-26T00:23:12.323Z,28.17
2023-06-26T00:24:12.337Z,28.18
2023-06-26T00:25:12.388Z,28.12
2023-06-26T00:26:12.399Z,28.15
2023-06-26T00:27:12.358Z,28.18
2023-06-26T00:28:12.454Z,28.15
2023-06-26T00:29:12.536Z,28.15
2023-06-26T00:30:12.673Z,28.17
2023-06-26T00:31:12.795Z,28.17
2023-06-26T00:32:12.880Z,28.17
2023-06-26T00:33:12.971Z,28.18
2023-06-26T00:34:13.059Z,28.17
2023-06-26T00:35:13.180Z,28.17
2023-06-26T00:36:13.153Z,28.21
2023-06-26T00:37:13.176Z,28.17
2023-06-26T00:38:13.188Z,28.18
2023-06-26T00:39:13.203Z,28.15
2023-06-26T00:40:13.203Z,28.18
2023-06-26T00:41:13.248Z,28.15
2023-06-26T00:42:13.230Z,28.15
2023-06-26T00:43:13.259Z,28.18
2023-06-26T00:44:13.301Z,28.17
2023-06-26T00:45:13.275Z,28.17
2023-06-26T00:46:13.273Z,28.17
2023-06-26T00:47:13.313Z,28.14
2023-06-26T00:48:13.492Z,28.17
2023-06-26T00:49:13.289Z,28.17
2023-06-26T00:50:13.375Z,28.15
2023-06-26T00:51:13.489Z,28.15
2023-06-26T00:52:13.496Z,28.12
2023-06-26T00:53:13.567Z,28.15
2023-06-26T00:54:13.556Z,28.15
2023-06-26T00:55:13.579Z,28.14
2023-06-26T00:56:13.559Z,28.12
2023-06-26T00:57:13.636Z,28.15
2023-06-26T00:58:13.729Z,28.14
2023-06-26T00:59:13.844Z,28.15
2023-06-26T01:00:13.852Z,28.15
2023-06-26T01:01:13.819Z,28.14
2023-06-26T01:02:13.911Z,28.14
2023-06-26T01:03:13.927Z,28.14
2023-06-26T01:04:13.877Z,28.15
2023-06-26T01:05:14.072Z,28.14
2023-06-26T01:06:14.103Z,28.12
2023-06-26T01:07:14.132Z,28.14
2023-06-26T01:08:14.102Z,28.14
2023-06-26T01:09:14.071Z,28.14
2023-06-26T01:10:14.079Z,28.14
2023-06-26T01:11:14.130Z,28.14
2023-06-26T01:12:14.225Z,28.15
2023-06-26T01:13:14.366Z,28.14
2023-06-26T01:14:14.421Z,28.14
2023-06-26T01:15:14.499Z,28.14
2023-06-26T01:16:14.486Z,28.14
2023-06-26T01:17:14.475Z,28.14
2023-06-26T01:18:14.495Z,28.15
2023-06-26T01:19:14.508Z,28.14
2023-06-26T01:20:14.616Z,28.12
2023-06-26T01:21:14.613Z,28.14
2023-06-26T01:22:14.635Z,28.11
2023-06-26T01:23:14.611Z,28.12
2023-06-26T01:24:14.629Z,28.12
2023-06-26T01:25:14.707Z,28.12
2023-06-26T01:26:14.666Z,28.14
2023-06-26T01:27:14.711Z,28.14
2023-06-26T01:28:14.719Z,28.11
2023-06-26T01:29:14.765Z,28.11
2023-06-26T01:30:14.733Z,28.11
2023-06-26T01:31:14.804Z,28.08
2023-06-26T01:32:14.782Z,28.12
2023-06-26T01:33:14.788Z,28.10
2023-06-26T01:34:14.790Z,28.11
2023-06-26T01:35:14.862Z,28.12
2023-06-26T01:36:14.908Z,28.11
2023-06-26T01:37:14.921Z,28.11
2023-06-26T01:38:15.119Z,28.11
2023-06-26T01:39:15.285Z,28.12
2023-06-26T01:40:15.233Z,28.11
2023-06-26T01:41:15.059Z,28.08
2023-06-26T01:42:15.066Z,28.10
2023-06-26T01:43:15.059Z,28.10
2023-06-26T01:44:15.033Z,28.11
2023-06-26T01:45:15.085Z,28.08
2023-06-26T01:46:16.199Z,28.11
2023-06-26T01:47:15.219Z,28.12
2023-06-26T01:48:15.212Z,28.10
2023-06-26T01:49:15.221Z,28.10
2023-06-26T01:50:15.217Z,28.11
2023-06-26T01:51:15.289Z,28.10
2023-06-26T01:52:15.461Z,28.11
2023-06-26T01:53:15.352Z,28.07
2023-06-26T01:54:15.341Z,28.10
2023-06-26T01:55:15.373Z,28.10
2023-06-26T01:56:15.369Z,28.08
2023-06-26T01:57:15.410Z,28.11
2023-06-26T01:58:15.454Z,28.08
2023-06-26T01:59:15.424Z,28.08
2023-06-26T02:00:15.461Z,28.10
2023-06-26T02:01:15.515Z,28.08
2023-06-26T02:02:15.515Z,28.07
2023-06-26T02:03:15.693Z,28.10
2023-06-26T02:04:15.532Z,28.08
2023-06-26T02:05:15.530Z,28.08
2023-06-26T02:06:15.537Z,28.10
2023-06-26T02:07:15.557Z,28.08
2023-06-26T02:08:15.557Z,28.05
2023-06-26T02:09:15.613Z,28.08
2023-06-26T02:10:15.593Z,28.10
2023-06-26T02:11:15.629Z,28.07
2023-06-26T02:12:15.691Z,28.07
2023-06-26T02:13:15.677Z,28.10
2023-06-26T02:14:15.718Z,28.07
2023-06-26T02:15:15.777Z,28.07
2023-06-26T02:16:15.712Z,28.04
2023-06-26T02:17:15.808Z,28.07
2023-06-26T02:18:15.771Z,28.08
2023-06-26T02:19:15.828Z,28.08
2023-06-26T02:20:15.842Z,28.07
2023-06-26T02:21:15.838Z,28.05
2023-06-26T02:22:15.882Z,28.07
2023-06-26T02:23:15.897Z,28.05
2023-06-26T02:24:15.896Z,28.07
2023-06-26T02:25:15.922Z,28.04
2023-06-26T02:26:15.904Z,28.07
2023-06-26T02:27:15.976Z,28.04
2023-06-26T02:28:15.985Z,28.04
2023-06-26T02:29:15.991Z,28.04
2023-06-26T02:30:16.019Z,28.04
2023-06-26T02:31:16.031Z,28.05
2023-06-26T02:32:16.025Z,28.04
2023-06-26T02:33:16.086Z,28.04
2023-06-26T02:34:16.073Z,28.05
2023-06-26T02:35:16.111Z,28.04
2023-06-26T02:36:16.138Z,28.04
2023-06-26T02:37:16.153Z,28.04
2023-06-26T02:38:16.202Z,28.03
2023-06-26T02:39:16.206Z,28.03
2023-06-26T02:40:16.254Z,28.04
2023-06-26T02:41:16.236Z,28.03
2023-06-26T02:42:16.265Z,28.05
2023-06-26T02:43:16.298Z,28.04
2023-06-26T02:44:16.307Z,28.03
2023-06-26T02:45:16.349Z,28.01
2023-06-26T02:46:16.387Z,28.04
2023-06-26T02:47:16.526Z,28.04
2023-06-26T02:48:16.435Z,28.03
2023-06-26T02:49:16.426Z,28.03
2023-06-26T02:50:16.492Z,28.01
2023-06-26T02:51:16.845Z,28.01
2023-06-26T02:52:16.915Z,28.01
2023-06-26T02:53:16.560Z,28.01
2023-06-26T02:54:16.591Z,28.03
2023-06-26T02:55:16.641Z,28.04
2023-06-26T02:56:16.655Z,28.03
2023-06-26T02:57:16.638Z,27.98
2023-06-26T02:58:16.703Z,27.98
2023-06-26T02:59:16.706Z,28.00
2023-06-26T03:00:16.725Z,28.01
2023-06-26T03:01:18.272Z,28.00
2023-06-26T03:02:16.763Z,28.04
2023-06-26T03:03:16.781Z,28.01
2023-06-26T03:04:16.869Z,28.03
2023-06-26T03:05:16.848Z,28.00
2023-06-26T03:06:16.857Z,28.00
2023-06-26T03:07:16.888Z,28.01
2023-06-26T03:08:16.918Z,28.01
2023-06-26T03:09:16.926Z,28.00
2023-06-26T03:10:17.005Z,28.00
2023-06-26T03:11:16.968Z,28.00
2023-06-26T03:12:17.002Z,28.00
2023-06-26T03:13:17.006Z,28.00
2023-06-26T03:14:17.065Z,28.03
2023-06-26T03:15:17.100Z,27.98
2023-06-26T03:16:17.160Z,28.00
2023-06-26T03:17:17.138Z,28.00
2023-06-26T03:18:17.153Z,27.98
2023-06-26T03:19:17.161Z,28.00
2023-06-26T03:20:17.200Z,27.98
2023-06-26T03:21:17.202Z,28.00
2023-06-26T03:22:17.235Z,28.01
2023-06-26T03:23:17.249Z,28.00
2023-06-26T03:24:17.299Z,27.98
2023-06-26T03:25:17.283Z,28.00
2023-06-26T03:26:17.327Z,27.98
2023-06-26T03:27:19.400Z,27.97
2023-06-26T03:28:17.376Z,27.98
2023-06-26T03:29:17.474Z,27.97
2023-06-26T03:30:17.444Z,27.98
2023-06-26T03:31:17.471Z,27.98
2023-06-26T03:32:17.487Z,27.97
2023-06-26T03:33:17.511Z,28.01
2023-06-26T03:34:17.529Z,27.98
2023-06-26T03:35:17.538Z,27.97
2023-06-26T03:36:17.546Z,27.97
2023-06-26T03:37:17.652Z,27.97
2023-06-26T03:38:17.629Z,27.98
2023-06-26T03:39:17.664Z,27.97
2023-06-26T03:40:17.710Z,27.98
2023-06-26T03:41:17.717Z,27.98
2023-06-26T03:42:17.750Z,27.97
2023-06-26T03:43:17.730Z,27.97
2023-06-26T03:44:17.774Z,27.97
2023-06-26T03:45:17.852Z,27.98
2023-06-26T03:46:17.885Z,27.98
2023-06-26T03:47:17.867Z,27.96
2023-06-26T03:48:17.890Z,27.98
2023-06-26T03:49:17.923Z,27.98
2023-06-26T03:50:17.917Z,27.97
2023-06-26T03:51:18.011Z,27.97
2023-06-26T03:52:17.999Z,27.98
2023-06-26T03:53:18.008Z,27.97
2023-06-26T03:54:18.028Z,27.97
2023-06-26T03:55:19.974Z,27.97
2023-06-26T03:56:18.071Z,27.96
2023-06-26T03:57:18.121Z,27.96
2023-06-26T03:58:18.141Z,27.96
2023-06-26T03:59:18.147Z,27.94
2023-06-26T04:00:18.201Z,27.96
2023-06-26T04:01:18.244Z,27.96
2023-06-26T04:02:18.316Z,27.88
2023-06-26T04:03:18.322Z,27.81
2023-06-26T04:04:18.443Z,27.70
2023-06-26T04:05:18.388Z,27.61
2023-06-26T04:06:18.458Z,27.51
2023-06-26T04:07:18.542Z,27.49
2023-06-26T04:08:18.630Z,27.46
2023-06-26T04:09:18.603Z,27.40
2023-06-26T04:10:18.697Z,27.33
2023-06-26T04:11:18.746Z,27.25
2023-06-26T04:12:18.800Z,27.22
2023-06-26T04:13:18.877Z,27.20
2023-06-26T04:14:18.927Z,27.19
2023-06-26T04:15:19.012Z,27.20
2023-06-26T04:16:19.042Z,27.16
2023-06-26T04:17:19.160Z,27.16
2023-06-26T04:18:19.146Z,27.19
2023-06-26T04:19:19.210Z,27.13
2023-06-26T04:20:19.257Z,27.03
2023-06-26T04:21:19.372Z,27.07
2023-06-26T04:22:19.402Z,27.05
2023-06-26T04:23:19.443Z,27.05
2023-06-26T04:24:19.486Z,27.00
2023-06-26T04:25:19.559Z,27.02
2023-06-26T04:26:19.628Z,27.05
2023-06-26T04:27:19.675Z,27.03
2023-06-26T04:28:19.752Z,27.03
2023-06-26T04:29:19.786Z,27.00
2023-06-26T04:30:19.864Z,27.02
2023-06-26T04:31:19.995Z,27.16
2023-06-26T04:32:19.965Z,27.23
2023-06-26T04:33:20.061Z,27.32
2023-06-26T04:34:20.065Z,27.37
2023-06-26T04:35:20.089Z,27.43
2023-06-26T04:36:20.143Z,27.49
2023-06-26T04:37:20.171Z,27.50
2023-06-26T04:38:20.199Z,27.54
2023-06-26T04:39:20.234Z,27.61
2023-06-26T04:40:20.269Z,27.63
2023-06-26T04:41:20.283Z,27.64
2023-06-26T04:42:20.332Z,27.67
2023-06-26T04:43:20.399Z,27.68
2023-06-26T04:44:20.432Z,27.68
2023-06-26T04:45:20.456Z,27.70
2023-06-26T04:46:20.752Z,27.75
2023-06-26T04:47:20.520Z,27.75
2023-06-26T04:48:20.571Z,27.75
2023-06-26T04:49:20.606Z,27.75
2023-06-26T04:50:20.621Z,27.79
2023-06-26T04:51:20.688Z,27.79
2023-06-26T04:52:20.710Z,27.80
2023-06-26T04:53:20.740Z,27.81
2023-06-26T04:54:20.779Z,27.80
2023-06-26T04:55:20.785Z,27.79
2023-06-26T04:56:20.837Z,27.79
2023-06-26T04:57:20.846Z,27.80
2023-06-26T04:58:20.961Z,27.83
2023-06-26T04:59:21.060Z,27.80
2023-06-26T05:00:20.997Z,27.80
2023-06-26T05:01:21.140Z,27.79
2023-06-26T05:02:21.211Z,27.79
2023-06-26T05:03:21.364Z,27.77
2023-06-26T05:04:21.235Z,27.73
2023-06-26T05:05:21.321Z,27.73
2023-06-26T05:06:21.300Z,27.71
2023-06-26T05:07:21.437Z,27.71
2023-06-26T05:08:21.542Z,27.67
2023-06-26T05:09:21.501Z,27.67
2023-06-26T05:10:21.557Z,27.64
2023-06-26T05:11:21.598Z,27.64
2023-06-26T05:12:21.726Z,27.64
2023-06-26T05:13:21.728Z,27.63
2023-06-26T05:14:23.615Z,27.61
2023-06-26T05:15:21.788Z,27.60
2023-06-26T05:16:21.763Z,27.60
2023-06-26T05:17:21.812Z,27.58
2023-06-26T05:18:21.768Z,27.56
2023-06-26T05:19:21.775Z,27.54
2023-06-26T05:20:21.836Z,27.53
2023-06-26T05:21:21.870Z,27.51
2023-06-26T05:22:21.759Z,27.47
2023-06-26T05:23:21.762Z,27.47
2023-06-26T05:24:22.703Z,27.47
2023-06-26T05:25:21.712Z,27.43
2023-06-26T05:26:21.756Z,27.37
2023-06-26T05:27:21.750Z,27.39
2023-06-26T05:28:21.685Z,27.36
2023-06-26T05:29:21.663Z,27.32
2023-06-26T05:30:21.651Z,27.32
2023-06-26T05:31:21.707Z,27.29
2023-06-26T05:32:21.702Z,27.27
2023-06-26T05:33:21.668Z,27.23
2023-06-26T05:34:21.651Z,27.19
2023-06-26T05:35:21.657Z,27.19
2023-06-26T05:36:21.666Z,27.16
2023-06-26T05:37:21.640Z,27.13
2023-06-26T05:38:21.645Z,27.16
2023-06-26T05:39:21.612Z,27.20
2023-06-26T05:40:21.622Z,27.20
2023-06-26T05:41:21.623Z,27.20
2023-06-26T05:42:21.617Z,27.26
2023-06-26T05:43:25.980Z,27.26
2023-06-26T05:44:22.590Z,27.25
2023-06-26T05:45:21.567Z,27.29
2023-06-26T05:46:21.569Z,27.30
2023-06-26T05:47:21.620Z,27.27
2023-06-26T05:48:21.590Z,27.29
2023-06-26T05:49:21.583Z,27.20
2023-06-26T05:50:21.541Z,27.19
2023-06-26T05:51:21.529Z,27.19
2023-06-26T05:52:21.561Z,27.17
2023-06-26T05:53:21.525Z,27.10
2023-06-26T05:54:21.525Z,27.10
2023-06-26T05:55:21.500Z,27.11
2023-06-26T05:56:21.498Z,27.22
2023-06-26T05:57:21.472Z,27.23
2023-06-26T05:58:21.488Z,27.14
2023-06-26T05:59:21.494Z,27.23
2023-06-26T06:00:21.502Z,27.27
2023-06-26T06:01:21.511Z,27.29
2023-06-26T06:02:21.490Z,27.30
2023-06-26T06:03:21.558Z,27.30
2023-06-26T06:04:21.445Z,27.32
2023-06-26T06:05:21.801Z,27.34
2023-06-26T06:06:21.471Z,27.32
2023-06-26T06:07:21.580Z,27.32
2023-06-26T06:08:21.640Z,27.33
2023-06-26T06:09:21.737Z,27.32
2023-06-26T06:10:21.726Z,27.43
2023-06-26T06:11:21.830Z,27.43
2023-06-26T06:12:21.909Z,27.43
2023-06-26T06:13:21.902Z,27.34
2023-06-26T06:14:21.958Z,27.40
2023-06-26T06:15:22.006Z,27.40
2023-06-26T06:16:22.037Z,27.44
2023-06-26T06:17:22.193Z,27.46
2023-06-26T06:18:22.176Z,27.46
2023-06-26T06:19:22.196Z,27.46
2023-06-26T06:20:22.266Z,27.47
2023-06-26T06:21:22.285Z,27.50
2023-06-26T06:22:22.359Z,27.47
2023-06-26T06:23:22.363Z,27.47
2023-06-26T06:24:22.414Z,27.51
2023-06-26T06:25:22.459Z,27.54
2023-06-26T06:26:22.496Z,27.54
2023-06-26T06:27:22.560Z,27.57
2023-06-26T06:28:22.611Z,27.53
2023-06-26T06:29:22.637Z,27.58
2023-06-26T06:30:43.616Z,27.60
2023-06-26T06:31:23.896Z,27.64
2023-06-26T06:32:22.679Z,27.60
2023-06-26T06:33:22.648Z,27.63
2023-06-26T06:34:22.690Z,27.71
2023-06-26T06:35:26.326Z,27.75
2023-06-26T06:36:22.640Z,27.81
2023-06-26T06:37:22.677Z,27.77
2023-06-26T06:38:22.613Z,27.74
2023-06-26T06:39:22.763Z,27.73
2023-06-26T06:40:22.650Z,27.73
2023-06-26T06:41:22.668Z,27.77
2023-06-26T06:42:22.661Z,27.71
2023-06-26T06:43:22.685Z,27.75
2023-06-26T06:44:22.583Z,27.79
2023-06-26T06:45:22.651Z,27.80
2023-06-26T06:46:22.611Z,27.75
2023-06-26T06:47:22.598Z,27.86
2023-06-26T06:48:22.580Z,27.75
2023-06-26T06:49:22.849Z,27.77
2023-06-26T06:50:22.693Z,27.81
2023-06-26T06:51:22.705Z,27.81
2023-06-26T06:52:22.700Z,27.80
2023-06-26T06:53:22.757Z,27.88
2023-06-26T06:54:22.819Z,27.84
2023-06-26T06:55:22.812Z,27.86
2023-06-26T06:56:22.882Z,27.86
2023-06-26T06:57:22.886Z,27.90
2023-06-26T06:58:22.951Z,27.87
2023-06-26T06:59:22.965Z,27.91
2023-06-26T07:00:22.994Z,27.94
2023-06-26T07:01:23.058Z,27.97
2023-06-26T07:02:23.055Z,27.93
2023-06-26T07:03:23.250Z,27.93
2023-06-26T07:04:23.100Z,27.93
2023-06-26T07:05:23.096Z,27.94
2023-06-26T07:06:23.116Z,27.96
2023-06-26T07:07:23.203Z,28.00
2023-06-26T07:08:23.150Z,28.03
2023-06-26T07:09:23.948Z,27.97
2023-06-26T07:10:23.384Z,28.04
2023-06-26T07:11:23.230Z,28.08
2023-06-26T07:12:23.257Z,28.08
2023-06-26T07:13:23.260Z,28.04
2023-06-26T07:14:23.259Z,28.04
2023-06-26T07:15:23.630Z,28.11
2023-06-26T07:16:23.310Z,28.08
2023-06-26T07:17:23.349Z,28.11
2023-06-26T07:18:23.294Z,28.07
2023-06-26T07:19:23.278Z,28.15
2023-06-26T07:20:23.300Z,28.18
2023-06-26T07:21:24.530Z,28.17
2023-06-26T07:22:23.273Z,28.14
2023-06-26T07:23:23.326Z,28.24
2023-06-26T07:24:23.297Z,28.24
2023-06-26T07:25:23.283Z,28.28
2023-06-26T07:26:35.603Z,28.31
2023-06-26T07:27:24.252Z,28.22
2023-06-26T07:28:23.258Z,28.30
2023-06-26T07:29:23.268Z,28.32
2023-06-26T07:30:23.280Z,28.32
2023-06-26T07:31:23.280Z,28.28
2023-06-26T07:32:23.256Z,28.35
2023-06-26T07:33:23.225Z,28.31
2023-06-26T07:34:23.224Z,28.28
2023-06-26T07:35:23.209Z,28.31
2023-06-26T07:36:23.245Z,28.38
2023-06-26T07:37:23.206Z,28.40
2023-06-26T07:38:23.177Z,28.38
2023-06-26T07:39:24.191Z,28.45
2023-06-26T07:40:23.177Z,28.44
2023-06-26T07:41:23.202Z,28.48
2023-06-26T07:42:23.188Z,28.50
2023-06-26T07:43:23.190Z,28.54
2023-06-26T07:44:23.160Z,28.61
2023-06-26T07:45:25.444Z,28.71
2023-06-26T07:46:23.160Z,28.79
2023-06-26T07:47:23.168Z,28.83
2023-06-26T07:48:23.135Z,28.87
2023-06-26T07:49:23.132Z,28.91
2023-06-26T07:50:23.139Z,28.94
2023-06-26T07:51:23.153Z,28.94
2023-06-26T07:52:23.116Z,28.99
2023-06-26T07:53:23.130Z,29.01
2023-06-26T07:54:23.135Z,29.02
2023-06-26T07:55:23.131Z,29.05
2023-06-26T07:56:23.074Z,29.05
2023-06-26T07:57:23.079Z,29.06
2023-06-26T07:58:23.106Z,29.05
2023-06-26T07:59:23.070Z,29.08
2023-06-26T08:00:23.086Z,29.08
2023-06-26T08:01:23.045Z,29.12
2023-06-26T08:02:23.097Z,29.11
2023-06-26T08:03:34.370Z,29.13
2023-06-26T08:04:24.225Z,29.12
2023-06-26T08:05:23.079Z,29.21
2023-06-26T08:06:23.012Z,29.22
2023-06-26T08:07:23.043Z,29.25
2023-06-26T08:08:22.993Z,29.25
2023-06-26T08:09:23.022Z,29.26
2023-06-26T08:10:23.013Z,29.28
2023-06-26T08:11:23.045Z,29.29
2023-06-26T08:12:23.040Z,29.29
2023-06-26T08:13:23.090Z,29.32
2023-06-26T08:14:23.116Z,29.33
2023-06-26T08:15:23.123Z,29.35
2023-06-26T08:16:23.112Z,29.36
2023-06-26T08:17:23.163Z,29.36
2023-06-26T08:18:23.157Z,29.36
2023-06-26T08:19:23.132Z,29.37
2023-06-26T08:20:23.140Z,29.40
2023-06-26T08:21:23.159Z,29.42
2023-06-26T08:22:23.212Z,29.44
2023-06-26T08:23:24.529Z,29.48
2023-06-26T08:24:23.157Z,29.48
2023-06-26T08:25:23.175Z,29.55
2023-06-26T08:26:23.140Z,29.50
2023-06-26T08:27:23.161Z,29.55
2023-06-26T08:28:23.146Z,29.56
2023-06-26T08:29:23.182Z,29.53
2023-06-26T08:30:23.168Z,29.55
2023-06-26T08:31:23.230Z,29.55
2023-06-26T08:32:23.170Z,29.58
2023-06-26T08:33:23.130Z,29.53
2023-06-26T08:34:23.152Z,29.53
2023-06-26T08:35:23.116Z,29.56
2023-06-26T08:36:23.096Z,29.58
2023-06-26T08:37:23.103Z,29.58
2023-06-26T08:38:23.079Z,29.58
2023-06-26T08:39:23.087Z,29.59
2023-06-26T08:40:23.080Z,29.59
2023-06-26T08:41:23.073Z,29.59
2023-06-26T08:42:23.061Z,29.63
2023-06-26T08:43:23.056Z,29.60
2023-06-26T08:44:23.069Z,29.59
2023-06-26T08:45:23.120Z,29.60
2023-06-26T08:46:23.066Z,29.62
2023-06-26T08:47:23.695Z,29.63
2023-06-26T08:48:23.029Z,29.68
2023-06-26T08:49:23.034Z,29.69
2023-06-26T08:50:23.012Z,29.70
2023-06-26T08:51:22.994Z,29.70
2023-06-26T08:52:23.007Z,29.72
2023-06-26T08:53:22.985Z,29.72
2023-06-26T08:54:22.982Z,29.75
2023-06-26T08:55:23.002Z,29.76
2023-06-26T08:56:22.951Z,29.80
2023-06-26T08:57:22.993Z,29.83
2023-06-26T08:58:22.935Z,29.80
2023-06-26T08:59:22.957Z,29.82
2023-06-26T09:00:22.935Z,29.86
2023-06-26T09:01:22.930Z,29.90
2023-06-26T09:02:23.029Z,29.93
2023-06-26T09:03:22.971Z,29.96
2023-06-26T09:04:22.945Z,29.90
2023-06-26T09:05:22.878Z,29.90
2023-06-26T09:06:22.917Z,29.83
2023-06-26T09:07:22.966Z,29.94
2023-06-26T09:08:22.938Z,29.92
2023-06-26T09:09:22.865Z,29.87
2023-06-26T09:10:22.852Z,29.84
2023-06-26T09:11:22.977Z,29.89
2023-06-26T09:12:22.854Z,29.89
2023-06-26T09:13:29.354Z,29.93
2023-06-26T09:14:23.884Z,29.94
2023-06-26T09:15:22.884Z,29.94
2023-06-26T09:16:22.857Z,29.97
2023-06-26T09:17:22.911Z,30.03
2023-06-26T09:18:22.894Z,30.03
2023-06-26T09:19:23.377Z,30.03
2023-06-26T09:20:22.823Z,30.07
2023-06-26T09:21:22.793Z,30.10
2023-06-26T09:22:22.772Z,30.04
2023-06-26T09:23:22.833Z,30.04
2023-06-26T09:24:22.766Z,30.09
2023-06-26T09:25:22.746Z,30.09
2023-06-26T09:26:22.785Z,30.12
2023-06-26T09:27:22.752Z,30.16
2023-06-26T09:28:22.759Z,30.10
2023-06-26T09:29:22.772Z,30.13
2023-06-26T09:30:22.857Z,30.12
2023-06-26T09:31:39.782Z,30.17
2023-06-26T09:32:23.913Z,30.14
2023-06-26T09:33:22.948Z,30.19
2023-06-26T09:34:22.857Z,30.22
2023-06-26T09:35:22.795Z,30.26
2023-06-26T09:36:22.813Z,30.27
2023-06-26T09:37:22.762Z,30.30
2023-06-26T09:38:22.766Z,30.27
2023-06-26T09:39:22.783Z,30.33
2023-06-26T09:40:22.806Z,30.33
2023-06-26T09:41:22.747Z,30.33
2023-06-26T09:42:22.725Z,30.34
2023-06-26T09:43:22.762Z,30.38
2023-06-26T09:44:22.754Z,30.41
2023-06-26T09:45:22.713Z,30.40
2023-06-26T09:46:22.769Z,30.31
2023-06-26T09:47:23.501Z,30.37
2023-06-26T09:48:22.710Z,30.38
2023-06-26T09:49:22.683Z,30.43
2023-06-26T09:50:22.705Z,30.43
2023-06-26T09:51:22.721Z,30.43
2023-06-26T09:52:22.668Z,30.37
2023-06-26T09:53:22.666Z,30.44
2023-06-26T09:54:22.681Z,30.44
2023-06-26T09:55:22.681Z,30.47
2023-06-26T09:56:22.669Z,30.44
2023-06-26T09:57:22.635Z,30.46
2023-06-26T09:58:22.677Z,30.54
2023-06-26T09:59:22.655Z,30.57
2023-06-26T10:00:22.675Z,30.57
2023-06-26T10:01:22.666Z,30.61
2023-06-26T10:02:22.713Z,30.54
2023-06-26T10:03:22.775Z,30.66
2023-06-26T10:04:22.756Z,30.56
2023-06-26T10:05:22.594Z,30.63
2023-06-26T10:06:22.699Z,30.71
2023-06-26T10:07:22.631Z,30.73
2023-06-26T10:08:22.576Z,30.73
2023-06-26T10:09:22.623Z,30.56
2023-06-26T10:10:22.566Z,30.66
2023-06-26T10:11:22.602Z,30.70
2023-06-26T10:12:22.597Z,30.70
2023-06-26T10:13:22.538Z,30.66
2023-06-26T10:14:22.543Z,30.56
2023-06-26T10:15:22.563Z,30.74
2023-06-26T10:16:22.689Z,30.77
2023-06-26T10:17:22.641Z,30.78
2023-06-26T10:18:22.511Z,30.81
2023-06-26T10:19:22.510Z,30.78
2023-06-26T10:20:22.488Z,30.84
2023-06-26T10:21:22.531Z,30.84
2023-06-26T10:22:22.685Z,30.83
2023-06-26T10:23:22.505Z,30.83
2023-06-26T10:24:22.482Z,30.84
2023-06-26T10:25:22.465Z,30.91
2023-06-26T10:26:22.493Z,30.90
2023-06-26T10:27:22.564Z,30.93
2023-06-26T10:28:22.496Z,30.94
2023-06-26T10:29:22.482Z,30.98
2023-06-26T10:30:22.470Z,30.97
2023-06-26T10:31:22.516Z,30.99
2023-06-26T10:32:22.472Z,30.97
2023-06-26T10:33:22.443Z,30.98
2023-06-26T10:34:22.416Z,30.99
2023-06-26T10:35:22.473Z,31.01
2023-06-26T10:36:22.511Z,31.01
2023-06-26T10:37:22.552Z,31.01
2023-06-26T10:38:22.601Z,31.04
2023-06-26T10:39:22.602Z,31.08
2023-06-26T10:40:22.669Z,31.05
2023-06-26T10:41:22.699Z,31.04
2023-06-26T10:42:22.739Z,31.02
2023-06-26T10:43:22.783Z,31.02
2023-06-26T10:44:22.806Z,31.02
2023-06-26T10:45:22.824Z,30.99
2023-06-26T10:46:22.827Z,30.95
2023-06-26T10:47:22.990Z,30.93
2023-06-26T10:48:22.928Z,30.94
2023-06-26T10:49:23.008Z,30.91
2023-06-26T10:50:37.812Z,30.90
2023-06-26T10:51:23.992Z,30.88
2023-06-26T10:52:23.031Z,30.85
2023-06-26T10:53:23.087Z,30.88
2023-06-26T10:54:23.018Z,30.87
2023-06-26T10:55:23.051Z,30.81
2023-06-26T10:56:23.991Z,30.80
2023-06-26T10:57:22.974Z,30.77
2023-06-26T10:58:22.982Z,30.73
2023-06-26T10:59:22.988Z,30.75
2023-06-26T11:00:22.964Z,30.73
2023-06-26T11:01:23.280Z,30.71
2023-06-26T11:02:22.955Z,30.61
2023-06-26T11:03:22.953Z,30.70
2023-06-26T11:04:23.016Z,30.67
2023-06-26T11:05:22.927Z,30.59
2023-06-26T11:06:22.944Z,30.64
2023-06-26T11:07:22.980Z,30.57
2023-06-26T11:08:22.960Z,30.66
2023-06-26T11:09:23.018Z,30.57
2023-06-26T11:10:23.041Z,30.60
2023-06-26T11:11:23.090Z,30.63
2023-06-26T11:12:23.092Z,30.66
2023-06-26T11:13:23.115Z,30.66
2023-06-26T11:14:23.169Z,30.71
2023-06-26T11:15:23.184Z,30.66
2023-06-26T11:16:23.224Z,30.63
2023-06-26T11:17:23.300Z,30.67
2023-06-26T11:18:23.291Z,30.63
2023-06-26T11:19:23.299Z,30.56
2023-06-26T11:20:23.333Z,30.64
2023-06-26T11:21:23.340Z,30.59
2023-06-26T11:22:23.370Z,30.67
2023-06-26T11:23:23.412Z,30.67
2023-06-26T11:24:23.397Z,30.71
2023-06-26T11:25:23.390Z,30.66
2023-06-26T11:26:23.454Z,30.60
2023-06-26T11:27:23.478Z,30.64
2023-06-26T11:28:23.473Z,30.61
2023-06-26T11:29:23.513Z,30.61
2023-06-26T11:30:23.534Z,30.51
2023-06-26T11:31:23.623Z,30.54
2023-06-26T11:32:23.569Z,30.56
2023-06-26T11:33:23.622Z,30.56
2023-06-26T11:34:23.654Z,30.51
2023-06-26T11:35:23.734Z,30.47
2023-06-26T11:36:23.670Z,30.41
2023-06-26T11:37:23.731Z,30.37
2023-06-26T11:38:23.795Z,30.38
2023-06-26T11:39:23.749Z,30.44
2023-06-26T11:40:23.793Z,30.47
2023-06-26T11:41:23.854Z,30.40
2023-06-26T11:42:23.864Z,30.47
2023-06-26T11:43:23.914Z,30.44
2023-06-26T11:44:23.987Z,30.44
2023-06-26T11:45:24.030Z,30.40
2023-06-26T11:46:24.019Z,30.36
2023-06-26T11:47:24.191Z,30.41
2023-06-26T11:48:24.181Z,30.43
2023-06-26T11:49:24.162Z,30.40
2023-06-26T11:50:24.228Z,30.40
2023-06-26T11:51:24.259Z,30.41
2023-06-26T11:52:24.285Z,30.43
2023-06-26T11:53:24.350Z,30.37
2023-06-26T11:54:24.369Z,30.40
2023-06-26T11:55:24.405Z,30.37
2023-06-26T11:56:24.505Z,30.40
2023-06-26T11:57:24.497Z,30.31
2023-06-26T11:58:24.538Z,30.37
2023-06-26T11:59:24.592Z,30.26
2023-06-26T12:00:24.630Z,30.37
2023-06-26T12:01:24.720Z,30.36
2023-06-26T12:02:24.747Z,30.41
2023-06-26T12:03:24.818Z,30.44
2023-06-26T12:04:24.906Z,30.48
2023-06-26T12:05:24.877Z,30.51
2023-06-26T12:06:24.948Z,30.50
2023-06-26T12:07:24.934Z,30.56
2023-06-26T12:08:24.960Z,30.54
2023-06-26T12:09:24.968Z,30.57
2023-06-26T12:10:24.925Z,30.59
2023-06-26T12:11:24.922Z,30.61
2023-06-26T12:12:24.949Z,30.59
2023-06-26T12:13:24.934Z,30.60
2023-06-26T12:14:25.008Z,30.63
2023-06-26T12:15:25.060Z,30.63
2023-06-26T12:16:25.043Z,30.63
2023-06-26T12:17:25.041Z,30.64
2023-06-26T12:18:25.032Z,30.64
2023-06-26T12:19:25.072Z,30.67
2023-06-26T12:20:25.058Z,30.67
2023-06-26T12:21:25.014Z,30.69
2023-06-26T12:22:25.005Z,30.66
2023-06-26T12:23:25.188Z,30.67
2023-06-26T12:24:25.081Z,30.66
2023-06-26T12:25:25.093Z,30.69
2023-06-26T12:26:25.087Z,30.70
2023-06-26T12:27:25.133Z,30.70
2023-06-26T12:28:25.153Z,30.69
2023-06-26T12:29:25.162Z,30.66
2023-06-26T12:30:25.192Z,30.67
2023-06-26T12:31:25.233Z,30.67
2023-06-26T12:32:25.310Z,30.67
2023-06-26T12:33:25.243Z,30.67
2023-06-26T12:34:25.246Z,30.64
2023-06-26T12:35:25.303Z,30.64
2023-06-26T12:36:25.285Z,30.67
2023-06-26T12:37:25.360Z,30.67
2023-06-26T12:38:25.337Z,30.64
2023-06-26T12:39:25.333Z,30.69
2023-06-26T12:40:25.521Z,30.64
2023-06-26T12:41:25.335Z,30.66
2023-06-26T12:42:25.371Z,30.69
2023-06-26T12:43:25.381Z,30.67
2023-06-26T12:44:25.386Z,30.70
2023-06-26T12:45:32.493Z,30.69
2023-06-26T12:46:26.392Z,30.69
2023-06-26T12:47:25.428Z,30.70
2023-06-26T12:48:25.345Z,30.67
2023-06-26T12:49:31.316Z,30.70
2023-06-26T12:50:26.391Z,30.67
2023-06-26T12:51:25.325Z,30.70
2023-06-26T12:52:25.315Z,30.70